Řízení letového provozu České republiky  
Aktualizace dat:  22.09.2017 00:34:16 UTC English version
   METEO Zobrazení stránky:  22.09.2017 00:36:00 UTC  
vysvětlivky
METAR EDDB 220020Z 25002KT CAVOK 11/10 Q1020 NOSIG=
METAR EDDC 220020Z 29002KT CAVOK 11/09 Q1020=
METAR EDDE 220020Z 21007KT 9999 FEW037 08/07 Q1021=
METAR EDDF 220020Z 06003KT 020V090 CAVOK 10/09 Q1020 NOSIG=
METAR EDDM 220020Z 28001KT 6000 2000NE R08L/0650V0900D R08R/0400V0750D BCFG NSC 04/03 Q1021 TEMPO 2000=
METAR EDDN 220020Z 11003KT 9999 MIFG NSC 06/06 Q1021=
METAR EDDP 220020Z 08003KT CAVOK 12/10 Q1020 NOSIG=
METAR EDDT 220020Z VRB01KT 9999 MIFG NSC 10/09 Q1020=
METAR EDQM 211750Z 00000KT CAVOK 10/08 Q1021=
METAR EPBY 220030Z 31011KT CAVOK 10/10 Q1016 =
METAR EPGD 220030Z 30009KT 9999 OVC007 12/11 Q1015 =
METAR EPKK 220030Z 28003KT 210V330 9999 FEW007 SCT011 BKN024 10/09 Q1015 =
METAR EPKT 220030Z 33011KT 300V360 9999 -RA FEW005 BKN007 OVC008 09/08 Q1015 =
METAR EPLL 220030Z 31006KT 280V350 2500 RA BR BKN003 11/11 Q1015 =
METAR EPPO 220030Z 32005KT 9999 SCT001 BKN003 10/09 Q1018 =
METAR EPRZ 220030Z 26008KT 0800 R27/1600N FG OVC002 11/11 Q1013 =
METAR EPWA 220030Z 33005KT 9999 BKN006 12/12 Q1014 BECMG BKN005=
METAR EPWR 220030Z 32008KT 9999 BKN007 11/10 Q1018 =
METAR LHBP 220030Z 31006KT 9999 BKN047 11/10 Q1015 NOSIG=
METAR LHSM NIL
METAR LKCV 220000Z 29007KT CAVOK 12/09 Q1019 NOSIG=
METAR LKKB 220000Z 28005KT CAVOK 12/09 Q1020 =
METAR LKKU NIL
METAR LKKV 220000Z 28002KT CAVOK 10/08 Q1020 RMK REG QNH 1015=
METAR LKLN 220000Z AUTO 22001KT 9999 OVC062 11/10 Q1021=
METAR LKMT 220030Z 36004KT 9000 -RA SCT010 BKN020 12/11 Q1017 NOSIG=
METAR LKNA 220000Z 30010KT CAVOK 09/08 Q1018=
METAR LKPD 220000Z 28006KT CAVOK 12/10 Q1019 =
METAR LKPR 220030Z 23005KT 9999 -RA FEW030 11/08 Q1020 NOSIG=
METAR LKTB 220030Z 32005KT CAVOK 11/09 Q1018 NOSIG=
METAR LKVO NIL
METAR LOWI 220020Z AUTO 23003KT 180V270 9999 NCD 05/05 Q1022=
METAR LOWL 220020Z AUTO 25005KT 9999 FEW060 BKN070 11/09 Q1021=
METAR LOWS 220020Z AUTO 15005KT 9999 FEW110 07/06 Q1022=
METAR LOWW 220020Z 31011KT 9999 FEW048 BKN060 13/09 Q1018 NOSIG=
METAR LZIB 220030Z 30010KT 270V330 9999 FEW015 SCT037 BKN090 13/10 Q1018=
METAR LZKZ 220030Z VRB01KT CAVOK 09/08 Q1014=
METAR LZPP 220030Z AUTO VRB01KT 7000 -RA BKN036/// BKN057/// OVC100/// 11/10 Q1017=
METAR LZSL 220030Z 23005KT 210V300 CAVOK 10/08 Q1015=
METAR LZTT 220030Z 29005KT 9999 BKN026 08/06 Q1014=
METAR LZZI 220030Z 29002KT 9999 FEW005 BKN022 OVC036 09/09 Q1017=